Time;durP1;ratioP1;P1;durP2;ratioP2;P2;SDS_P1;SDS_P2;PMS_P1;PMS_P2;Temp;Humidity;BMP_temperature;BMP_pressure;BME280_temperature;BME280_humidity;BME280_pressure;Samples;Min_cycle;Max_cycle;Signal;HPM_P1;HPM_P2
2021/07/08 00:03:51;;;;;;;5.28;1.75;;;;;;;20.09;67.21;101830.75;10013804;29;20427;-68
2021/07/08 00:08:48;;;;;;;6.55;2.00;;;;;;;20.04;67.75;101833.78;10026257;29;20047;-71
2021/07/08 00:13:47;;;;;;;8.77;2.28;;;;;;;19.94;67.47;101824.03;10035220;29;20497;-67
2021/07/08 00:18:44;;;;;;;6.03;2.13;;;;;;;19.88;67.84;101842.88;10028598;29;20602;-68
2021/07/08 00:23:40;;;;;;;5.18;1.83;;;;;;;19.81;67.80;101836.34;10029051;29;20085;-70
2021/07/08 00:28:36;;;;;;;3.63;1.40;;;;;;;19.71;67.85;101832.09;10039398;29;20156;-71
2021/07/08 00:33:33;;;;;;;4.78;1.83;;;;;;;19.63;67.73;101830.25;10032679;29;20102;-69
2021/07/08 00:38:30;;;;;;;4.18;1.85;;;;;;;19.55;68.13;101835.59;10032530;29;20051;-70
2021/07/08 00:43:29;;;;;;;4.68;2.05;;;;;;;19.47;68.39;101836.56;10027163;29;20071;-71
2021/07/08 00:48:26;;;;;;;5.53;1.83;;;;;;;19.42;68.83;101825.69;10052512;29;20459;-70
2021/07/08 00:53:22;;;;;;;4.57;2.08;;;;;;;19.41;69.07;101829.63;10028893;29;20432;-70
2021/07/08 00:58:19;;;;;;;7.35;1.90;;;;;;;19.42;69.49;101819.34;10031891;29;20682;-74
2021/07/08 01:03:17;;;;;;;4.85;1.83;;;;;;;19.41;69.46;101818.53;10030037;28;20175;-74
2021/07/08 01:08:17;;;;;;;5.05;1.90;;;;;;;19.44;69.74;101828.94;9996714;29;20485;-72
2021/07/08 01:13:14;;;;;;;5.63;2.00;;;;;;;19.43;70.03;101816.22;10034558;29;20138;-68
2021/07/08 01:18:11;;;;;;;4.10;1.75;;;;;;;19.43;70.15;101830.09;10026693;29;20074;-68
2021/07/08 01:23:08;;;;;;;4.55;1.95;;;;;;;19.40;70.62;101828.03;10028317;29;20048;-73
2021/07/08 01:28:07;;;;;;;7.68;1.85;;;;;;;19.40;70.49;101833.59;10003652;29;20464;-74
2021/07/08 01:33:07;;;;;;;5.85;1.98;;;;;;;19.37;70.70;101833.47;10009016;29;20048;-74
2021/07/08 01:38:04;;;;;;;3.83;1.45;;;;;;;19.34;70.40;101841.31;10028065;29;20040;-68
2021/07/08 01:43:00;;;;;;;5.25;1.60;;;;;;;19.33;70.54;101844.44;10022621;29;20075;-69
2021/07/08 01:47:57;;;;;;;7.03;1.73;;;;;;;19.29;70.91;101832.44;10033209;29;20048;-72
2021/07/08 01:52:53;;;;;;;4.28;1.50;;;;;;;19.23;70.72;101822.75;10027760;29;20043;-67
2021/07/08 01:57:56;;;;;;;4.78;1.60;;;;;;;19.15;71.07;101824.50;10031628;28;20048;-72
2021/07/08 02:02:54;;;;;;;4.15;1.90;;;;;;;19.10;70.90;101820.00;10029969;29;20119;-72
2021/07/08 02:07:51;;;;;;;5.70;1.80;;;;;;;19.05;71.01;101817.50;10026635;29;20079;-68
2021/07/08 02:12:48;;;;;;;6.75;2.22;;;;;;;18.99;70.93;101813.34;10030152;29;20039;-69
2021/07/08 02:17:45;;;;;;;4.90;1.90;;;;;;;18.95;71.09;101831.81;10023034;29;20050;-68
2021/07/08 02:22:42;;;;;;;4.07;1.85;;;;;;;18.94;71.37;101824.66;9987051;29;1037345;-68
2021/07/08 02:27:39;;;;;;;4.05;1.70;;;;;;;18.94;71.24;101835.75;10022697;29;20858;-73
2021/07/08 02:32:38;;;;;;;5.00;1.80;;;;;;;18.91;71.83;101823.41;10026400;29;20079;-75
2021/07/08 02:37:38;;;;;;;6.03;2.05;;;;;;;18.93;72.12;101814.72;10009765;29;20082;-73
2021/07/08 02:42:36;;;;;;;3.65;1.63;;;;;;;18.92;72.01;101807.56;10028350;28;20040;-74
2021/07/08 02:47:34;;;;;;;3.53;1.52;;;;;;;18.94;72.44;101808.03;10039320;28;20075;-73
2021/07/08 02:52:30;;;;;;;4.75;1.92;;;;;;;18.98;72.06;101808.94;10026660;29;20780;-71
2021/07/08 02:57:27;;;;;;;5.07;1.75;;;;;;;18.99;72.20;101818.06;10033969;29;20110;-70
2021/07/08 03:02:24;;;;;;;5.00;1.90;;;;;;;19.01;72.35;101822.09;10034273;29;20051;-70
2021/07/08 03:07:20;;;;;;;5.43;1.85;;;;;;;18.99;72.35;101813.34;10027091;29;20776;-69
2021/07/08 03:12:18;;;;;;;8.93;2.58;;;;;;;18.97;72.71;101804.56;10034282;29;20047;-70
2021/07/08 03:17:15;;;;;;;4.47;1.80;;;;;;;18.95;72.88;101803.28;10011527;29;20450;-71
2021/07/08 03:22:12;;;;;;;4.82;2.03;;;;;;;18.96;72.86;101811.28;10037547;28;20748;-71
2021/07/08 03:27:08;;;;;;;4.55;2.00;;;;;;;18.98;72.95;101800.63;10035972;29;20071;-71
2021/07/08 03:32:07;;;;;;;6.75;2.15;;;;;;;18.94;72.94;101816.34;10014943;29;20059;-70
2021/07/08 03:37:04;;;;;;;6.22;2.40;;;;;;;18.91;72.91;101822.56;10049605;29;20055;-71
2021/07/08 03:42:00;;;;;;;7.50;1.70;;;;;;;18.93;73.14;101825.81;10036773;29;20748;-71
2021/07/08 03:46:57;;;;;;;4.90;2.00;;;;;;;18.95;73.61;101834.56;10000484;29;20046;-70
2021/07/08 03:51:54;;;;;;;6.18;1.98;;;;;;;18.96;73.53;101846.47;10036483;29;20044;-73
2021/07/08 03:56:50;;;;;;;5.50;2.25;;;;;;;18.99;73.98;101841.03;10039054;29;20039;-68
2021/07/08 04:01:47;;;;;;;4.68;2.10;;;;;;;19.01;74.16;101843.47;10033960;29;20098;-72
2021/07/08 04:06:43;;;;;;;3.95;2.00;;;;;;;18.97;73.91;101843.34;10020777;29;20055;-72
2021/07/08 04:11:40;;;;;;;4.90;2.13;;;;;;;19.00;74.72;101842.66;10027934;29;20047;-70
2021/07/08 04:16:36;;;;;;;5.82;2.30;;;;;;;19.02;74.47;101856.97;10025137;29;20114;-69
2021/07/08 04:21:33;;;;;;;6.00;2.45;;;;;;;19.00;73.92;101864.81;10034960;28;20055;-68
2021/07/08 04:26:30;;;;;;;5.43;2.35;;;;;;;19.07;73.14;101878.91;10028501;28;20099;-69
2021/07/08 04:31:26;;;;;;;6.43;2.92;;;;;;;19.16;72.84;101881.56;10015027;29;20047;-70
2021/07/08 04:36:23;;;;;;;5.05;2.53;;;;;;;19.26;72.97;101883.03;10016475;29;20051;-68
2021/07/08 04:41:21;;;;;;;3.72;1.90;;;;;;;19.27;73.28;101882.69;10025852;29;20146;-68
2021/07/08 04:46:17;;;;;;;7.25;2.40;;;;;;;19.30;72.55;101881.19;10027176;28;20405;-69
2021/07/08 04:51:14;;;;;;;6.25;2.40;;;;;;;19.34;72.27;101871.03;10023013;28;20050;-68
2021/07/08 04:56:10;;;;;;;7.82;2.80;;;;;;;19.41;72.08;101874.00;10031924;29;20092;-69
2021/07/08 05:01:07;;;;;;;9.25;2.95;;;;;;;19.41;72.66;101904.50;10037960;28;20079;-70
2021/07/08 05:06:04;;;;;;;6.93;3.20;;;;;;;19.41;71.77;101921.16;10018017;29;20051;-68
2021/07/08 05:11:00;;;;;;;10.73;3.42;;;;;;;19.37;71.79;101892.50;10030150;29;20063;-68
2021/07/08 05:15:57;;;;;;;8.38;3.30;;;;;;;19.41;71.86;101901.75;10034221;28;20095;-68
2021/07/08 05:20:55;;;;;;;7.38;3.20;;;;;;;19.42;71.98;101903.34;10018610;29;20043;-71
2021/07/08 05:25:52;;;;;;;7.15;3.72;;;;;;;19.46;71.62;101898.72;10033558;29;20546;-71
2021/07/08 05:30:49;;;;;;;8.48;3.72;;;;;;;19.51;71.83;101884.59;10036210;29;20487;-69
2021/07/08 05:35:45;;;;;;;8.50;3.50;;;;;;;19.53;71.83;101887.84;10028030;29;20040;-70
2021/07/08 05:40:42;;;;;;;10.40;3.38;;;;;;;19.60;71.75;101892.00;10029855;29;20052;-68
2021/07/08 05:45:38;;;;;;;8.15;3.42;;;;;;;19.65;71.28;101877.88;10028619;29;20043;-70
2021/07/08 05:50:35;;;;;;;6.18;2.92;;;;;;;19.74;71.37;101890.47;10031540;28;20074;-69
2021/07/08 05:55:31;;;;;;;9.20;3.20;;;;;;;19.80;71.08;101907.69;10024692;29;20070;-70
2021/07/08 06:00:28;;;;;;;7.05;3.70;;;;;;;19.86;70.82;101911.81;10016568;29;20074;-69
2021/07/08 06:05:24;;;;;;;7.80;4.00;;;;;;;19.93;70.70;101911.22;10011081;29;20166;-70
2021/07/08 06:10:21;;;;;;;7.35;3.30;;;;;;;19.90;70.72;101898.06;10029307;29;20051;-68
2021/07/08 06:15:20;;;;;;;5.82;3.22;;;;;;;19.92;70.87;101904.88;10025376;29;20043;-69
2021/07/08 06:20:17;;;;;;;7.50;3.63;;;;;;;19.96;71.33;101905.78;10030794;29;20158;-69
2021/07/08 06:25:17;;;;;;;8.88;4.20;;;;;;;20.08;70.57;101918.00;10035843;29;20526;-69
2021/07/08 06:30:14;;;;;;;8.38;3.30;;;;;;;20.18;70.91;101923.03;10044066;29;20083;-71
2021/07/08 06:35:12;;;;;;;8.40;3.60;;;;;;;20.30;70.89;101922.94;10027942;29;20420;-68
2021/07/08 06:40:10;;;;;;;9.02;3.83;;;;;;;20.29;70.87;101929.69;10036238;29;20055;-68
2021/07/08 06:45:11;;;;;;;10.27;3.47;;;;;;;20.29;70.06;101937.22;10033631;29;20044;-68
2021/07/08 06:50:08;;;;;;;7.63;3.38;;;;;;;20.35;69.43;101944.94;10046360;29;20484;-69
2021/07/08 06:55:07;;;;;;;5.72;2.72;;;;;;;20.37;68.84;101959.25;10040013;29;20429;-70
2021/07/08 07:00:04;;;;;;;5.70;3.03;;;;;;;20.42;68.79;101960.97;10040988;29;20842;-70
2021/07/08 07:05:00;;;;;;;10.00;4.05;;;;;;;20.50;68.09;101956.44;10028019;29;20055;-69
2021/07/08 07:09:57;;;;;;;5.78;2.55;;;;;;;20.62;67.57;101950.81;10040114;29;20563;-68
2021/07/08 07:14:53;;;;;;;5.57;2.88;;;;;;;20.78;67.87;101946.09;10035372;29;20075;-69
2021/07/08 07:19:49;;;;;;;7.85;3.22;;;;;;;20.93;67.45;101957.56;10033790;29;20419;-71
2021/07/08 07:24:47;;;;;;;7.15;2.92;;;;;;;21.05;66.80;101951.94;10031156;29;20043;-70
2021/07/08 07:29:44;;;;;;;7.95;2.83;;;;;;;21.14;67.10;101952.53;10035220;29;20106;-72
2021/07/08 07:34:40;;;;;;;6.28;2.90;;;;;;;21.27;66.08;101947.66;10030162;28;20044;-72
2021/07/08 07:39:36;;;;;;;6.72;3.00;;;;;;;21.32;66.37;101963.28;10028582;29;20047;-69
2021/07/08 07:44:33;;;;;;;9.57;2.97;;;;;;;21.38;65.96;101953.50;10028977;29;20850;-70
2021/07/08 07:49:29;;;;;;;8.07;2.92;;;;;;;21.47;65.08;101940.22;10019323;29;20062;-68
2021/07/08 07:54:26;;;;;;;5.07;2.60;;;;;;;21.62;64.67;101955.25;10033033;29;20083;-69
2021/07/08 07:59:22;;;;;;;6.88;2.30;;;;;;;21.75;65.04;101958.72;10040080;29;20506;-72
2021/07/08 08:04:19;;;;;;;8.18;2.83;;;;;;;21.85;65.10;101952.56;10034046;29;20043;-70
2021/07/08 08:09:16;;;;;;;5.97;2.33;;;;;;;21.87;64.61;101960.56;10030148;29;20043;-71
2021/07/08 08:14:12;;;;;;;5.97;2.53;;;;;;;21.97;64.47;101959.97;10035117;29;20051;-69
2021/07/08 08:19:09;;;;;;;7.88;2.58;;;;;;;22.02;62.49;101957.72;10045996;28;20046;-68
2021/07/08 08:24:05;;;;;;;5.22;2.28;;;;;;;22.00;61.29;101962.84;10034679;29;20126;-69
2021/07/08 08:29:02;;;;;;;6.72;2.10;;;;;;;21.97;60.75;101966.34;10029555;29;20048;-68
2021/07/08 08:33:58;;;;;;;7.13;2.33;;;;;;;22.18;62.28;101971.53;10024507;29;20108;-70
2021/07/08 08:38:55;;;;;;;5.03;2.33;;;;;;;22.42;60.80;101969.66;10026971;29;20043;-70
2021/07/08 08:43:51;;;;;;;7.15;2.80;;;;;;;22.57;59.42;101965.16;10026230;29;20628;-69
2021/07/08 08:48:48;;;;;;;6.60;2.15;;;;;;;22.75;58.85;101969.06;10030723;29;20047;-70
2021/07/08 08:53:44;;;;;;;8.30;2.22;;;;;;;22.92;56.19;101970.53;10030855;29;20067;-71
2021/07/08 08:58:40;;;;;;;6.28;1.98;;;;;;;23.07;57.12;101971.63;10028853;29;20047;-69
2021/07/08 09:03:37;;;;;;;4.45;1.60;;;;;;;23.17;55.67;101970.19;10030443;28;20040;-74
2021/07/08 09:08:38;;;;;;;5.53;2.03;;;;;;;23.27;58.88;101964.75;10040698;29;20052;-70
2021/07/08 09:13:46;;;;;;;4.35;1.52;;;;;;;23.27;54.72;101973.13;10022760;29;20099;-70
2021/07/08 09:18:54;;;;;;;4.53;1.58;;;;;;;23.33;55.82;101964.47;10028729;29;20056;-69
2021/07/08 09:24:14;;;;;;;4.70;1.73;;;;;;;23.37;56.83;101971.72;10026706;29;20043;-69
2021/07/08 09:29:19;;;;;;;6.65;1.85;;;;;;;23.34;56.49;101971.63;10022826;29;20071;-68
2021/07/08 09:34:21;;;;;;;5.10;1.55;;;;;;;23.38;55.97;101975.31;10003981;29;20487;-69
2021/07/08 09:39:18;;;;;;;5.32;1.65;;;;;;;23.30;55.00;101969.63;10026378;29;20535;-69
2021/07/08 09:44:20;;;;;;;4.78;1.60;;;;;;;23.37;56.82;101979.25;10035894;29;20123;-71
2021/07/08 09:49:16;;;;;;;6.57;1.83;;;;;;;23.45;57.52;101997.72;10028395;29;20036;-69
2021/07/08 09:59:11;;;;;;;8.93;2.03;;;;;;;23.31;56.87;101993.53;10033904;29;20044;-69
2021/07/08 10:04:07;;;;;;;5.80;1.90;;;;;;;23.26;56.67;101979.91;10032045;29;20047;-70
2021/07/08 10:09:06;;;;;;;6.68;1.95;;;;;;;23.20;55.58;101991.75;10038163;29;20135;-71
2021/07/08 10:14:04;;;;;;;7.03;2.08;;;;;;;23.17;57.44;101987.72;10034091;29;20055;-70
2021/07/08 10:19:04;;;;;;;4.35;1.70;;;;;;;23.19;58.30;101974.22;10040836;29;20063;-68
2021/07/08 10:24:01;;;;;;;7.80;2.03;;;;;;;23.22;57.18;101984.63;10039686;29;20039;-69
2021/07/08 10:28:59;;;;;;;6.63;1.73;;;;;;;23.23;53.67;101975.09;10030095;29;20508;-69
2021/07/08 10:34:09;;;;;;;6.10;1.58;;;;;;;23.30;54.13;101974.38;10035992;28;20055;-70
2021/07/08 10:39:09;;;;;;;4.55;1.42;;;;;;;23.34;55.76;101980.00;10039620;29;20067;-68
2021/07/08 10:44:41;;;;;;;4.07;1.50;;;;;;;23.43;57.05;101977.75;10033909;29;20531;-70
2021/07/08 10:49:40;;;;;;;4.15;1.77;;;;;;;23.64;56.00;101975.28;10030530;29;20122;-68
2021/07/08 10:54:46;;;;;;;6.45;1.65;;;;;;;24.09;54.30;101961.50;10041663;29;20055;-70
2021/07/08 10:59:45;;;;;;;4.40;1.50;;;;;;;24.40;54.26;101968.66;10026624;28;20103;-69
2021/07/08 11:04:53;;;;;;;5.25;1.90;;;;;;;24.68;51.03;101972.97;10034527;29;20089;-71
2021/07/08 11:10:04;;;;;;;7.47;2.08;;;;;;;24.80;51.88;101969.88;10043110;29;21281;-69
2021/07/08 11:15:03;;;;;;;7.28;2.15;;;;;;;24.77;51.12;101976.25;10028994;29;20048;-69
2021/07/08 11:19:59;;;;;;;5.72;1.75;;;;;;;25.30;51.94;101959.13;10038029;29;20048;-73
2021/07/08 11:24:56;;;;;;;4.68;1.60;;;;;;;25.33;52.18;101941.53;10030732;29;20039;-71
2021/07/08 11:29:58;;;;;;;5.60;1.75;;;;;;;26.46;51.71;101933.22;10031496;29;20043;-70
2021/07/08 11:35:13;;;;;;;5.30;1.70;;;;;;;26.39;47.02;101933.19;10017315;29;20047;-70
2021/07/08 11:40:11;;;;;;;6.18;1.55;;;;;;;26.89;48.91;101921.22;10027530;29;20484;-68
2021/07/08 11:45:13;;;;;;;8.77;1.98;;;;;;;27.51;44.91;101928.38;10037523;29;20048;-71
2021/07/08 11:50:30;;;;;;;5.40;1.77;;;;;;;27.31;43.38;101926.00;10025350;29;20043;-70
2021/07/08 11:55:28;;;;;;;4.80;1.65;;;;;;;26.90;43.41;101898.38;10016732;29;20118;-70
2021/07/08 12:00:36;;;;;;;5.57;2.20;;;;;;;26.89;43.65;101901.59;10028450;29;20163;-71
2021/07/08 12:05:32;;;;;;;5.18;1.85;;;;;;;26.89;44.78;101899.56;10033853;29;20511;-69
2021/07/08 12:10:34;;;;;;;3.75;1.58;;;;;;;27.14;45.54;101898.75;10031222;29;20044;-69
2021/07/08 12:15:30;;;;;;;5.20;1.50;;;;;;;26.93;41.31;101886.34;10026839;29;20047;-70
2021/07/08 12:20:31;;;;;;;5.97;1.70;;;;;;;26.71;43.95;101882.75;10037401;29;20106;-69
2021/07/08 12:25:29;;;;;;;5.25;1.48;;;;;;;26.56;44.48;101881.16;10022694;29;20044;-69
2021/07/08 12:30:27;;;;;;;5.70;1.60;;;;;;;26.54;44.59;101867.53;10029965;29;20560;-73
2021/07/08 12:35:24;;;;;;;4.70;1.38;;;;;;;26.61;43.50;101878.75;10032929;29;20082;-70
2021/07/08 12:40:23;;;;;;;5.38;1.60;;;;;;;26.56;42.79;101876.34;10024048;29;20059;-70
2021/07/08 12:45:26;;;;;;;7.43;1.58;;;;;;;26.65;42.97;101873.16;10035542;29;20456;-69
2021/07/08 12:50:25;;;;;;;5.40;1.75;;;;;;;26.72;43.15;101873.13;10023075;29;20051;-70
2021/07/08 12:55:41;;;;;;;4.00;1.30;;;;;;;26.66;45.95;101875.53;10040971;28;20090;-70
2021/07/08 13:00:38;;;;;;;5.28;1.73;;;;;;;26.70;45.67;101863.53;10030173;29;20071;-70
2021/07/08 13:05:39;;;;;;;6.50;1.58;;;;;;;26.73;42.33;101857.09;10037370;29;20551;-72
2021/07/08 13:10:44;;;;;;;4.53;1.40;;;;;;;26.80;42.57;101857.09;10030524;29;20082;-70
2021/07/08 13:15:46;;;;;;;5.13;1.90;;;;;;;26.81;42.11;101853.09;10025669;29;20047;-71
2021/07/08 13:20:45;;;;;;;7.05;1.40;;;;;;;27.13;43.53;101853.03;10019511;29;20090;-70
2021/07/08 13:25:43;;;;;;;3.97;1.63;;;;;;;27.08;43.50;101845.00;10032372;29;20687;-70
2021/07/08 13:30:40;;;;;;;4.07;1.45;;;;;;;26.66;37.66;101844.69;10031650;29;20090;-69
2021/07/08 13:35:50;;;;;;;5.97;1.08;;;;;;;26.61;38.81;101838.69;10027144;29;20071;-70
2021/07/08 13:41:13;;;;;;;5.82;1.63;;;;;;;26.44;39.83;101835.47;10039554;28;20472;-72
2021/07/08 13:46:17;;;;;;;4.22;1.40;;;;;;;26.22;40.17;101829.06;10016978;29;20064;-70
2021/07/08 13:51:14;;;;;;;3.75;1.30;;;;;;;26.08;40.71;101834.63;10035678;29;20043;-74
2021/07/08 13:56:16;;;;;;;5.20;1.67;;;;;;;26.28;39.99;101837.06;10025074;29;20040;-74
2021/07/08 14:01:14;;;;;;;5.33;1.50;;;;;;;26.22;39.79;101836.63;10018848;29;20079;-70
2021/07/08 14:06:11;;;;;;;6.22;2.22;;;;;;;26.39;40.16;101829.47;10020905;29;20067;-69
2021/07/08 14:11:10;;;;;;;10.38;2.50;;;;;;;26.71;41.57;101825.84;10026105;29;20052;-69
2021/07/08 14:16:08;;;;;;;5.55;1.50;;;;;;;26.74;40.03;101825.06;10015555;29;20143;-70
2021/07/08 14:21:07;;;;;;;5.53;1.58;;;;;;;26.87;40.45;101823.41;9997756;29;20054;-70
2021/07/08 14:26:04;;;;;;;6.63;1.45;;;;;;;27.25;40.05;101815.34;10009415;29;20516;-70
2021/07/08 14:31:01;;;;;;;5.55;1.42;;;;;;;27.73;38.29;101800.63;10024088;29;20082;-71
2021/07/08 14:35:58;;;;;;;5.43;1.60;;;;;;;28.09;37.26;101806.06;10010800;29;20047;-70
2021/07/08 14:40:56;;;;;;;8.38;1.55;;;;;;;27.66;38.12;101804.31;10026163;29;20523;-72
2021/07/08 14:45:53;;;;;;;6.70;1.58;;;;;;;27.24;37.82;101796.88;10034556;29;20079;-71
2021/07/08 14:50:50;;;;;;;3.97;1.42;;;;;;;27.17;37.26;101805.28;10026195;29;20102;-70
2021/07/08 14:55:46;;;;;;;4.43;1.63;;;;;;;27.45;37.98;101785.53;10033321;29;20499;-69
2021/07/08 15:00:43;;;;;;;5.35;1.38;;;;;;;27.72;37.99;101787.00;10034245;29;20485;-70
2021/07/08 15:05:39;;;;;;;5.03;1.50;;;;;;;27.86;38.39;101775.72;10030466;29;20044;-70
2021/07/08 15:10:36;;;;;;;4.55;1.40;;;;;;;27.52;38.32;101772.69;10034655;28;20090;-70
2021/07/08 15:15:32;;;;;;;3.85;1.30;;;;;;;27.39;38.54;101764.72;10034122;29;20076;-71
2021/07/08 15:20:29;;;;;;;4.45;1.40;;;;;;;27.60;39.13;101768.63;10030020;29;20419;-70
2021/07/08 15:25:25;;;;;;;6.57;1.52;;;;;;;27.80;37.84;101775.28;10031967;29;20064;-70
2021/07/08 15:30:34;;;;;;;5.20;1.58;;;;;;;27.77;37.51;101767.69;10035524;29;20048;-71
2021/07/08 15:35:30;;;;;;;5.90;1.70;;;;;;;27.61;39.34;101770.22;10031855;29;20051;-70
2021/07/08 15:40:27;;;;;;;6.28;1.50;;;;;;;27.33;38.70;101769.16;10037184;28;20051;-71
2021/07/08 15:45:23;;;;;;;4.65;2.05;;;;;;;27.32;39.78;101770.38;10034148;29;20052;-71
2021/07/08 15:50:20;;;;;;;4.45;1.40;;;;;;;27.35;40.39;101763.16;10037712;29;20469;-70
2021/07/08 15:55:16;;;;;;;4.03;1.58;;;;;;;27.68;40.27;101764.56;10043739;28;20544;-70
2021/07/08 16:00:13;;;;;;;5.82;1.40;;;;;;;28.06;38.45;101778.78;10030380;29;20047;-70
2021/07/08 16:05:10;;;;;;;4.93;1.70;;;;;;;28.45;41.64;101788.88;10022160;29;20131;-69
2021/07/08 16:10:07;;;;;;;4.78;1.80;;;;;;;27.54;45.37;101792.72;10027830;29;20500;-69
2021/07/08 16:15:07;;;;;;;4.72;2.08;;;;;;;26.69;47.61;101800.19;10028552;29;20520;-71
2021/07/08 16:20:05;;;;;;;7.50;1.90;;;;;;;25.93;49.52;101810.59;10026595;29;20135;-71
2021/07/08 16:25:03;;;;;;;6.40;2.03;;;;;;;25.53;50.75;101820.84;10025771;29;20055;-69
2021/07/08 16:29:59;;;;;;;7.60;1.98;;;;;;;24.81;51.05;101837.25;10036455;29;20044;-69
2021/07/08 16:34:56;;;;;;;5.63;2.20;;;;;;;24.68;51.23;101845.13;10020327;29;20052;-70
2021/07/08 16:39:53;;;;;;;7.28;1.70;;;;;;;24.22;53.59;101833.53;10033798;29;20686;-69
2021/07/08 16:44:51;;;;;;;4.90;1.98;;;;;;;24.01;53.60;101846.09;10011143;29;20048;-70
2021/07/08 16:49:47;;;;;;;4.10;1.80;;;;;;;23.79;54.53;101852.63;10033799;29;20043;-68
2021/07/08 16:54:45;;;;;;;5.20;2.05;;;;;;;23.72;55.19;101862.50;10023327;29;20460;-72
2021/07/08 16:59:41;;;;;;;5.15;1.88;;;;;;;23.53;55.36;101857.06;10033698;29;20583;-68
2021/07/08 17:04:58;;;;;;;5.95;1.75;;;;;;;23.28;53.52;101867.94;10022972;29;20059;-71
2021/07/08 17:09:54;;;;;;;4.70;1.50;;;;;;;23.15;56.00;101872.91;10032062;29;20727;-69
2021/07/08 17:14:51;;;;;;;6.03;1.92;;;;;;;22.99;59.87;101877.84;10032722;28;20053;-68
2021/07/08 17:19:48;;;;;;;4.75;1.73;;;;;;;22.57;59.68;101892.69;10014150;29;20087;-69
2021/07/08 17:24:44;;;;;;;4.05;1.73;;;;;;;22.33;61.67;101900.22;10033736;28;20078;-68
2021/07/08 17:29:41;;;;;;;4.88;2.05;;;;;;;22.29;60.33;101893.78;10033157;29;20131;-71
2021/07/08 17:34:37;;;;;;;8.10;2.97;;;;;;;22.19;64.11;101888.81;10016420;29;20047;-69
2021/07/08 17:39:34;;;;;;;11.20;2.95;;;;;;;21.99;67.21;101904.72;10032766;29;20107;-73
2021/07/08 17:44:30;;;;;;;5.45;2.60;;;;;;;21.72;67.78;101914.91;10026273;28;20052;-70
2021/07/08 17:49:47;;;;;;;4.88;2.65;;;;;;;21.53;67.15;101913.69;10028898;29;20059;-69
2021/07/08 17:54:43;;;;;;;5.38;2.28;;;;;;;21.44;67.07;101915.88;10035173;29;20043;-70
2021/07/08 17:59:40;;;;;;;11.63;4.05;;;;;;;21.32;67.88;101929.91;10033905;29;20043;-70
2021/07/08 18:04:54;;;;;;;10.02;4.20;;;;;;;21.15;70.20;101948.59;10024533;29;20059;-70
2021/07/08 18:09:53;;;;;;;10.40;4.05;;;;;;;20.88;70.55;101957.84;10040381;28;20114;-69
2021/07/08 18:14:51;;;;;;;7.30;4.00;;;;;;;20.55;72.98;101964.50;10033901;28;20464;-69
2021/07/08 18:19:48;;;;;;;9.23;4.78;;;;;;;20.27;74.46;101972.84;10049033;28;20047;-69
2021/07/08 18:24:44;;;;;;;8.00;4.32;;;;;;;20.13;75.02;101981.59;10036282;29;20047;-70
2021/07/08 18:29:41;;;;;;;7.57;4.00;;;;;;;20.12;75.41;101979.97;10036041;29;20690;-70
2021/07/08 18:34:37;;;;;;;7.40;4.40;;;;;;;20.04;75.96;101964.28;10018939;29;20075;-70
2021/07/08 18:39:34;;;;;;;8.15;4.53;;;;;;;19.95;76.29;101948.56;10037438;29;20127;-69
2021/07/08 18:44:30;;;;;;;8.50;4.72;;;;;;;19.90;75.62;101940.47;10029739;29;20546;-70
2021/07/08 18:49:27;;;;;;;8.18;5.20;;;;;;;19.87;76.06;101935.66;10034519;29;20091;-72
2021/07/08 18:54:24;;;;;;;8.15;4.53;;;;;;;19.86;76.94;101928.47;10041854;28;20051;-69
2021/07/08 18:59:21;;;;;;;7.95;3.90;;;;;;;19.87;77.37;101934.84;10025233;28;20044;-72
2021/07/08 19:04:17;;;;;;;7.18;3.63;;;;;;;19.87;77.66;101929.28;10025719;28;20048;-70
2021/07/08 19:09:15;;;;;;;8.77;4.30;;;;;;;19.85;78.26;101932.41;10034695;29;20624;-70
2021/07/08 19:14:11;;;;;;;7.85;4.07;;;;;;;19.81;78.15;101925.94;10031802;29;20143;-69
2021/07/08 19:19:08;;;;;;;8.15;4.40;;;;;;;19.80;78.87;101932.66;10036515;28;20559;-70
2021/07/08 19:24:04;;;;;;;8.50;5.32;;;;;;;19.81;79.93;101937.03;10021001;28;20082;-71
2021/07/08 19:29:16;;;;;;;6.45;3.90;;;;;;;19.76;79.31;101967.81;10044325;28;20066;-72
2021/07/08 19:34:14;;;;;;;7.32;4.32;;;;;;;19.80;79.48;101985.38;10023883;29;20099;-65
2021/07/08 19:39:12;;;;;;;6.88;5.07;;;;;;;19.87;80.75;101980.06;10030676;29;20122;-69
2021/07/08 19:44:08;;;;;;;7.78;5.50;;;;;;;19.86;80.42;101972.06;10036049;29;20150;-71
2021/07/08 19:49:06;;;;;;;11.30;6.55;;;;;;;19.80;80.48;101974.28;10029368;29;20067;-71
2021/07/08 19:54:02;;;;;;;11.57;8.00;;;;;;;19.65;81.17;101983.28;10026376;29;20086;-68
2021/07/08 19:58:59;;;;;;;13.68;7.88;;;;;;;19.69;81.63;101979.50;10040446;29;20106;-68
2021/07/08 20:04:16;;;;;;;9.60;6.63;;;;;;;19.71;82.48;101981.94;10029943;29;20400;-68
2021/07/08 20:09:13;;;;;;;11.63;7.97;;;;;;;19.71;82.12;102004.94;10032471;29;20526;-71
2021/07/08 20:14:11;;;;;;;8.45;5.93;;;;;;;19.73;82.20;102012.94;10037673;29;20039;-70
2021/07/08 20:19:07;;;;;;;11.00;6.18;;;;;;;19.59;82.06;102020.75;10030994;29;20047;-71
2021/07/08 20:24:05;;;;;;;8.35;6.28;;;;;;;19.61;82.86;102048.94;10025352;28;20044;-68
2021/07/08 20:29:02;;;;;;;11.55;6.63;;;;;;;19.54;82.88;102033.72;10031383;29;20070;-73
2021/07/08 20:33:58;;;;;;;8.32;6.57;;;;;;;19.27;82.94;102034.41;10031839;29;20729;-71
2021/07/08 20:38:55;;;;;;;9.68;6.13;;;;;;;19.28;83.44;102038.78;10037711;29;20048;-71
2021/07/08 20:43:52;;;;;;;12.57;8.60;;;;;;;19.31;83.61;102007.59;10012324;29;20126;-71
2021/07/08 20:48:48;;;;;;;10.88;7.32;;;;;;;19.32;83.52;101987.03;10039402;29;20047;-68
2021/07/08 20:53:47;;;;;;;12.18;7.75;;;;;;;19.31;83.64;101983.44;10034116;29;20837;-68
2021/07/08 20:58:43;;;;;;;10.27;7.20;;;;;;;19.33;83.06;101972.00;10034277;28;20130;-70
2021/07/08 21:03:40;;;;;;;10.75;6.78;;;;;;;19.33;82.59;101974.75;10008202;29;20044;-72
2021/07/08 21:08:37;;;;;;;11.57;8.32;;;;;;;19.32;82.76;101959.28;10027623;29;20106;-72
2021/07/08 21:13:33;;;;;;;8.52;6.90;;;;;;;19.27;82.65;101934.59;10038742;29;20047;-72
2021/07/08 21:18:30;;;;;;;9.77;7.38;;;;;;;19.24;82.69;101925.00;10029977;29;20148;-72
2021/07/08 21:23:42;;;;;;;8.13;7.13;;;;;;;19.25;82.82;101920.25;10033384;29;20047;-70
2021/07/08 21:28:39;;;;;;;9.25;6.88;;;;;;;19.29;83.09;101921.19;10038814;29;20036;-70
2021/07/08 21:33:36;;;;;;;9.93;7.95;;;;;;;19.32;82.84;101920.47;10036304;28;20047;-72
2021/07/08 21:38:32;;;;;;;8.43;7.22;;;;;;;19.31;83.13;101929.97;10033892;29;20084;-72
2021/07/08 21:43:30;;;;;;;11.23;7.82;;;;;;;19.29;83.28;101924.75;10032257;29;20047;-72
2021/07/08 21:48:46;;;;;;;9.68;7.43;;;;;;;19.30;83.33;101928.31;10028776;29;20621;-72
2021/07/08 21:53:43;;;;;;;9.27;8.27;;;;;;;19.33;83.68;101927.63;10034707;29;20114;-72
2021/07/08 21:58:39;;;;;;;11.52;8.23;;;;;;;19.34;83.73;101923.72;10043996;29;20522;-69
2021/07/08 22:03:36;;;;;;;11.52;9.60;;;;;;;19.34;84.13;101918.16;10034365;29;20051;-69
2021/07/08 22:08:32;;;;;;;13.90;12.40;;;;;;;19.30;84.50;101926.34;10040328;29;20779;-68
2021/07/08 22:13:29;;;;;;;13.80;10.75;;;;;;;19.27;84.39;101934.59;10034357;28;20082;-69
2021/07/08 22:18:25;;;;;;;12.40;10.80;;;;;;;19.28;84.46;101934.22;10040780;29;20051;-69
2021/07/08 22:23:22;;;;;;;12.55;11.05;;;;;;;19.30;84.48;101942.19;10040036;29;20047;-68
2021/07/08 22:28:18;;;;;;;12.50;10.38;;;;;;;19.35;84.58;101936.41;10033104;29;20091;-69
2021/07/08 22:33:15;;;;;;;11.10;9.93;;;;;;;19.36;84.79;101929.72;10035990;29;20087;-71
2021/07/08 22:38:12;;;;;;;11.25;9.30;;;;;;;19.32;84.30;101931.56;10018826;29;20455;-71
2021/07/08 22:43:21;;;;;;;10.55;9.40;;;;;;;19.29;84.57;101937.81;10033398;29;20130;-73
2021/07/08 22:48:18;;;;;;;12.32;8.65;;;;;;;19.27;84.27;101940.94;10031828;29;20035;-75
2021/07/08 22:53:17;;;;;;;12.00;8.65;;;;;;;19.27;84.50;101940.13;10020733;29;20056;-74
2021/07/08 22:58:14;;;;;;;10.25;7.43;;;;;;;19.26;84.29;101931.00;10042127;29;20772;-75